sensor_id;sensor_type;location;lat;lon;timestamp;P1;durP1;ratioP1;P2;durP2;ratioP2
20124;SDS011;10223;50.862;4.360;2023-03-03T00:00:37;28.97;;;14.23;;
20124;SDS011;10223;50.862;4.360;2023-03-03T00:03:04;30.03;;;15.77;;
20124;SDS011;10223;50.862;4.360;2023-03-03T00:05:33;33.27;;;16.37;;
20124;SDS011;10223;50.862;4.360;2023-03-03T00:08:02;29.73;;;15.33;;
20124;SDS011;10223;50.862;4.360;2023-03-03T00:10:29;32.87;;;16.07;;
20124;SDS011;10223;50.862;4.360;2023-03-03T00:12:56;27.60;;;14.53;;
20124;SDS011;10223;50.862;4.360;2023-03-03T00:15:24;31.97;;;16.13;;
20124;SDS011;10223;50.862;4.360;2023-03-03T00:17:52;33.83;;;15.83;;
20124;SDS011;10223;50.862;4.360;2023-03-03T00:20:28;30.10;;;14.97;;
20124;SDS011;10223;50.862;4.360;2023-03-03T00:23:12;29.40;;;15.13;;
20124;SDS011;10223;50.862;4.360;2023-03-03T00:25:42;30.83;;;15.53;;
20124;SDS011;10223;50.862;4.360;2023-03-03T00:28:19;32.83;;;15.30;;
20124;SDS011;10223;50.862;4.360;2023-03-03T00:30:49;30.60;;;15.70;;
20124;SDS011;10223;50.862;4.360;2023-03-03T00:33:27;29.40;;;14.90;;
20124;SDS011;10223;50.862;4.360;2023-03-03T00:35:58;31.60;;;15.03;;
20124;SDS011;10223;50.862;4.360;2023-03-03T00:38:37;29.00;;;14.83;;
20124;SDS011;10223;50.862;4.360;2023-03-03T00:41:05;27.20;;;14.27;;
20124;SDS011;10223;50.862;4.360;2023-03-03T00:43:41;29.63;;;14.07;;
20124;SDS011;10223;50.862;4.360;2023-03-03T00:46:08;28.27;;;14.17;;
20124;SDS011;10223;50.862;4.360;2023-03-03T00:48:40;29.73;;;14.70;;
20124;SDS011;10223;50.862;4.360;2023-03-03T00:51:12;25.93;;;13.50;;
20124;SDS011;10223;50.862;4.360;2023-03-03T00:53:52;28.67;;;14.57;;
20124;SDS011;10223;50.862;4.360;2023-03-03T00:56:19;27.30;;;13.77;;
20124;SDS011;10223;50.862;4.360;2023-03-03T00:58:46;26.37;;;13.40;;
20124;SDS011;10223;50.862;4.360;2023-03-03T01:01:13;28.77;;;14.37;;
20124;SDS011;10223;50.862;4.360;2023-03-03T01:03:40;29.97;;;14.27;;
20124;SDS011;10223;50.862;4.360;2023-03-03T01:06:07;30.83;;;14.13;;
20124;SDS011;10223;50.862;4.360;2023-03-03T01:08:35;31.03;;;15.27;;
20124;SDS011;10223;50.862;4.360;2023-03-03T01:11:04;28.40;;;14.90;;
20124;SDS011;10223;50.862;4.360;2023-03-03T01:13:34;30.23;;;14.33;;
20124;SDS011;10223;50.862;4.360;2023-03-03T01:16:02;28.67;;;13.87;;
20124;SDS011;10223;50.862;4.360;2023-03-03T01:18:30;27.57;;;15.47;;
20124;SDS011;10223;50.862;4.360;2023-03-03T01:20:57;29.10;;;15.83;;
20124;SDS011;10223;50.862;4.360;2023-03-03T01:23:24;30.47;;;15.53;;
20124;SDS011;10223;50.862;4.360;2023-03-03T01:25:51;31.50;;;15.43;;
20124;SDS011;10223;50.862;4.360;2023-03-03T01:28:19;33.90;;;15.93;;
20124;SDS011;10223;50.862;4.360;2023-03-03T01:30:46;32.20;;;15.53;;
20124;SDS011;10223;50.862;4.360;2023-03-03T01:33:13;33.43;;;15.83;;
20124;SDS011;10223;50.862;4.360;2023-03-03T01:35:42;33.27;;;16.10;;
20124;SDS011;10223;50.862;4.360;2023-03-03T01:38:09;29.87;;;14.80;;
20124;SDS011;10223;50.862;4.360;2023-03-03T01:40:37;34.73;;;16.73;;
20124;SDS011;10223;50.862;4.360;2023-03-03T01:43:04;34.03;;;15.43;;
20124;SDS011;10223;50.862;4.360;2023-03-03T01:45:36;31.30;;;16.57;;
20124;SDS011;10223;50.862;4.360;2023-03-03T01:48:30;35.90;;;16.47;;
20124;SDS011;10223;50.862;4.360;2023-03-03T01:50:59;33.13;;;16.37;;
20124;SDS011;10223;50.862;4.360;2023-03-03T01:53:30;35.60;;;17.23;;
20124;SDS011;10223;50.862;4.360;2023-03-03T01:56:02;32.77;;;16.50;;
20124;SDS011;10223;50.862;4.360;2023-03-03T01:58:32;35.10;;;17.00;;
20124;SDS011;10223;50.862;4.360;2023-03-03T02:01:03;35.33;;;18.47;;
20124;SDS011;10223;50.862;4.360;2023-03-03T02:03:33;32.23;;;17.13;;
20124;SDS011;10223;50.862;4.360;2023-03-03T02:06:02;35.40;;;18.23;;
20124;SDS011;10223;50.862;4.360;2023-03-03T02:08:33;35.20;;;16.93;;
20124;SDS011;10223;50.862;4.360;2023-03-03T02:11:07;37.20;;;17.73;;
20124;SDS011;10223;50.862;4.360;2023-03-03T02:13:35;35.83;;;17.13;;
20124;SDS011;10223;50.862;4.360;2023-03-03T02:16:04;33.80;;;17.83;;
20124;SDS011;10223;50.862;4.360;2023-03-03T02:18:31;35.13;;;18.13;;
20124;SDS011;10223;50.862;4.360;2023-03-03T02:21:01;34.27;;;16.63;;
20124;SDS011;10223;50.862;4.360;2023-03-03T02:23:33;37.17;;;18.33;;
20124;SDS011;10223;50.862;4.360;2023-03-03T02:26:09;35.27;;;17.53;;
20124;SDS011;10223;50.862;4.360;2023-03-03T02:28:37;41.50;;;18.90;;
20124;SDS011;10223;50.862;4.360;2023-03-03T02:31:06;36.60;;;19.10;;
20124;SDS011;10223;50.862;4.360;2023-03-03T02:33:37;45.13;;;20.20;;
20124;SDS011;10223;50.862;4.360;2023-03-03T02:36:04;38.83;;;20.27;;
20124;SDS011;10223;50.862;4.360;2023-03-03T02:38:33;46.60;;;20.40;;
20124;SDS011;10223;50.862;4.360;2023-03-03T02:41:07;45.47;;;19.90;;
20124;SDS011;10223;50.862;4.360;2023-03-03T02:43:41;42.23;;;20.07;;
20124;SDS011;10223;50.862;4.360;2023-03-03T02:46:14;45.10;;;20.33;;
20124;SDS011;10223;50.862;4.360;2023-03-03T02:48:41;39.30;;;19.53;;
20124;SDS011;10223;50.862;4.360;2023-03-03T02:51:08;38.90;;;20.53;;
20124;SDS011;10223;50.862;4.360;2023-03-03T02:53:35;41.93;;;19.97;;
20124;SDS011;10223;50.862;4.360;2023-03-03T02:56:02;38.80;;;19.40;;
20124;SDS011;10223;50.862;4.360;2023-03-03T02:58:32;37.20;;;18.07;;
20124;SDS011;10223;50.862;4.360;2023-03-03T03:00:59;44.00;;;20.10;;
20124;SDS011;10223;50.862;4.360;2023-03-03T03:03:26;39.60;;;20.10;;
20124;SDS011;10223;50.862;4.360;2023-03-03T03:05:53;40.43;;;18.57;;
20124;SDS011;10223;50.862;4.360;2023-03-03T03:08:20;36.83;;;18.33;;
20124;SDS011;10223;50.862;4.360;2023-03-03T03:10:47;41.70;;;19.43;;
20124;SDS011;10223;50.862;4.360;2023-03-03T03:13:14;43.13;;;19.77;;
20124;SDS011;10223;50.862;4.360;2023-03-03T03:15:42;45.43;;;20.33;;
20124;SDS011;10223;50.862;4.360;2023-03-03T03:18:11;44.60;;;20.47;;
20124;SDS011;10223;50.862;4.360;2023-03-03T03:20:38;43.07;;;20.70;;
20124;SDS011;10223;50.862;4.360;2023-03-03T03:23:05;44.23;;;20.60;;
20124;SDS011;10223;50.862;4.360;2023-03-03T03:25:33;41.20;;;20.00;;
20124;SDS011;10223;50.862;4.360;2023-03-03T03:28:06;45.33;;;20.33;;
20124;SDS011;10223;50.862;4.360;2023-03-03T03:30:34;46.87;;;21.77;;
20124;SDS011;10223;50.862;4.360;2023-03-03T03:33:02;46.17;;;21.53;;
20124;SDS011;10223;50.862;4.360;2023-03-03T03:35:29;41.27;;;20.63;;
20124;SDS011;10223;50.862;4.360;2023-03-03T03:37:57;42.60;;;20.67;;
20124;SDS011;10223;50.862;4.360;2023-03-03T03:40:24;46.57;;;21.27;;
20124;SDS011;10223;50.862;4.360;2023-03-03T03:42:51;47.57;;;20.90;;
20124;SDS011;10223;50.862;4.360;2023-03-03T03:45:18;42.67;;;19.90;;
20124;SDS011;10223;50.862;4.360;2023-03-03T03:47:45;42.80;;;21.00;;
20124;SDS011;10223;50.862;4.360;2023-03-03T03:50:14;42.57;;;20.13;;
20124;SDS011;10223;50.862;4.360;2023-03-03T03:52:41;43.87;;;21.00;;
20124;SDS011;10223;50.862;4.360;2023-03-03T03:55:08;45.30;;;21.77;;
20124;SDS011;10223;50.862;4.360;2023-03-03T03:57:36;38.80;;;20.13;;
20124;SDS011;10223;50.862;4.360;2023-03-03T04:00:03;41.47;;;20.40;;
20124;SDS011;10223;50.862;4.360;2023-03-03T04:02:31;41.27;;;19.83;;
20124;SDS011;10223;50.862;4.360;2023-03-03T04:04:58;36.43;;;19.13;;
20124;SDS011;10223;50.862;4.360;2023-03-03T04:07:26;38.20;;;19.50;;
20124;SDS011;10223;50.862;4.360;2023-03-03T04:09:53;40.50;;;20.13;;
20124;SDS011;10223;50.862;4.360;2023-03-03T04:12:20;38.63;;;18.40;;
20124;SDS011;10223;50.862;4.360;2023-03-03T04:14:47;48.47;;;21.03;;
20124;SDS011;10223;50.862;4.360;2023-03-03T04:17:15;41.33;;;19.47;;
20124;SDS011;10223;50.862;4.360;2023-03-03T04:19:42;41.47;;;19.50;;
20124;SDS011;10223;50.862;4.360;2023-03-03T04:22:09;43.67;;;19.20;;
20124;SDS011;10223;50.862;4.360;2023-03-03T04:24:38;38.13;;;18.57;;
20124;SDS011;10223;50.862;4.360;2023-03-03T04:27:05;38.77;;;18.27;;
20124;SDS011;10223;50.862;4.360;2023-03-03T04:29:33;40.97;;;19.87;;
20124;SDS011;10223;50.862;4.360;2023-03-03T04:32:00;41.37;;;19.33;;
20124;SDS011;10223;50.862;4.360;2023-03-03T04:34:27;38.50;;;18.87;;
20124;SDS011;10223;50.862;4.360;2023-03-03T04:36:54;41.10;;;18.77;;
20124;SDS011;10223;50.862;4.360;2023-03-03T04:39:21;41.87;;;19.43;;
20124;SDS011;10223;50.862;4.360;2023-03-03T04:41:49;44.43;;;20.07;;
20124;SDS011;10223;50.862;4.360;2023-03-03T04:44:16;43.83;;;19.63;;
20124;SDS011;10223;50.862;4.360;2023-03-03T04:46:42;40.67;;;17.80;;
20124;SDS011;10223;50.862;4.360;2023-03-03T04:49:09;37.73;;;17.90;;
20124;SDS011;10223;50.862;4.360;2023-03-03T04:51:36;42.07;;;20.00;;
20124;SDS011;10223;50.862;4.360;2023-03-03T04:54:03;42.33;;;19.67;;
20124;SDS011;10223;50.862;4.360;2023-03-03T04:56:30;41.83;;;19.57;;
20124;SDS011;10223;50.862;4.360;2023-03-03T04:58:58;38.23;;;17.40;;
20124;SDS011;10223;50.862;4.360;2023-03-03T05:01:25;41.83;;;18.50;;
20124;SDS011;10223;50.862;4.360;2023-03-03T05:03:52;41.23;;;19.53;;
20124;SDS011;10223;50.862;4.360;2023-03-03T05:06:19;38.50;;;18.27;;
20124;SDS011;10223;50.862;4.360;2023-03-03T05:08:46;34.60;;;16.73;;
20124;SDS011;10223;50.862;4.360;2023-03-03T05:11:13;43.60;;;19.73;;
20124;SDS011;10223;50.862;4.360;2023-03-03T05:13:40;46.00;;;19.67;;
20124;SDS011;10223;50.862;4.360;2023-03-03T05:16:08;45.43;;;19.77;;
20124;SDS011;10223;50.862;4.360;2023-03-03T05:18:35;45.70;;;19.80;;
20124;SDS011;10223;50.862;4.360;2023-03-03T05:21:02;42.67;;;19.83;;
20124;SDS011;10223;50.862;4.360;2023-03-03T05:23:29;44.03;;;19.30;;
20124;SDS011;10223;50.862;4.360;2023-03-03T05:25:56;46.43;;;20.20;;
20124;SDS011;10223;50.862;4.360;2023-03-03T05:28:23;46.10;;;20.93;;
20124;SDS011;10223;50.862;4.360;2023-03-03T05:30:50;46.70;;;20.43;;
20124;SDS011;10223;50.862;4.360;2023-03-03T05:33:18;48.33;;;20.77;;
20124;SDS011;10223;50.862;4.360;2023-03-03T05:35:45;48.03;;;20.37;;
20124;SDS011;10223;50.862;4.360;2023-03-03T05:38:12;45.13;;;20.87;;
20124;SDS011;10223;50.862;4.360;2023-03-03T05:40:38;47.00;;;21.20;;
20124;SDS011;10223;50.862;4.360;2023-03-03T05:43:06;49.50;;;20.03;;
20124;SDS011;10223;50.862;4.360;2023-03-03T05:45:33;42.30;;;18.20;;
20124;SDS011;10223;50.862;4.360;2023-03-03T05:48:00;48.83;;;20.27;;
20124;SDS011;10223;50.862;4.360;2023-03-03T05:50:28;45.33;;;21.80;;
20124;SDS011;10223;50.862;4.360;2023-03-03T05:52:56;45.23;;;19.53;;
20124;SDS011;10223;50.862;4.360;2023-03-03T05:55:23;45.37;;;20.27;;
20124;SDS011;10223;50.862;4.360;2023-03-03T05:57:50;42.67;;;18.60;;
20124;SDS011;10223;50.862;4.360;2023-03-03T06:00:17;41.80;;;18.17;;
20124;SDS011;10223;50.862;4.360;2023-03-03T06:02:45;36.23;;;16.37;;
20124;SDS011;10223;50.862;4.360;2023-03-03T06:05:11;33.63;;;16.23;;
20124;SDS011;10223;50.862;4.360;2023-03-03T06:07:40;39.17;;;17.33;;
20124;SDS011;10223;50.862;4.360;2023-03-03T06:10:07;35.03;;;17.07;;
20124;SDS011;10223;50.862;4.360;2023-03-03T06:12:34;38.10;;;17.70;;
20124;SDS011;10223;50.862;4.360;2023-03-03T06:15:03;36.17;;;17.90;;
20124;SDS011;10223;50.862;4.360;2023-03-03T06:17:30;38.67;;;16.77;;
20124;SDS011;10223;50.862;4.360;2023-03-03T06:19:57;44.53;;;18.50;;
20124;SDS011;10223;50.862;4.360;2023-03-03T06:22:24;35.53;;;18.33;;
20124;SDS011;10223;50.862;4.360;2023-03-03T06:24:52;41.63;;;18.70;;
20124;SDS011;10223;50.862;4.360;2023-03-03T06:27:19;38.00;;;17.13;;
20124;SDS011;10223;50.862;4.360;2023-03-03T06:29:46;38.23;;;18.10;;
20124;SDS011;10223;50.862;4.360;2023-03-03T06:32:13;37.10;;;16.70;;
20124;SDS011;10223;50.862;4.360;2023-03-03T06:34:40;36.37;;;18.17;;
20124;SDS011;10223;50.862;4.360;2023-03-03T06:37:07;37.60;;;18.17;;
20124;SDS011;10223;50.862;4.360;2023-03-03T06:39:34;39.70;;;18.57;;
20124;SDS011;10223;50.862;4.360;2023-03-03T06:42:02;36.83;;;18.13;;
20124;SDS011;10223;50.862;4.360;2023-03-03T06:44:29;34.73;;;17.17;;
20124;SDS011;10223;50.862;4.360;2023-03-03T06:46:56;37.57;;;19.17;;
20124;SDS011;10223;50.862;4.360;2023-03-03T06:49:23;42.33;;;19.07;;
20124;SDS011;10223;50.862;4.360;2023-03-03T06:51:50;42.97;;;18.83;;
20124;SDS011;10223;50.862;4.360;2023-03-03T06:54:17;40.10;;;19.40;;
20124;SDS011;10223;50.862;4.360;2023-03-03T06:56:45;36.20;;;18.47;;
20124;SDS011;10223;50.862;4.360;2023-03-03T06:59:14;40.40;;;18.03;;
20124;SDS011;10223;50.862;4.360;2023-03-03T07:01:43;34.50;;;16.27;;
20124;SDS011;10223;50.862;4.360;2023-03-03T07:04:15;34.97;;;16.70;;
20124;SDS011;10223;50.862;4.360;2023-03-03T07:06:50;36.50;;;16.87;;
20124;SDS011;10223;50.862;4.360;2023-03-03T07:09:19;36.13;;;16.73;;
20124;SDS011;10223;50.862;4.360;2023-03-03T07:11:48;35.73;;;16.40;;
20124;SDS011;10223;50.862;4.360;2023-03-03T07:14:17;31.07;;;15.47;;
20124;SDS011;10223;50.862;4.360;2023-03-03T07:16:45;30.57;;;14.60;;
20124;SDS011;10223;50.862;4.360;2023-03-03T07:19:15;36.37;;;17.13;;
20124;SDS011;10223;50.862;4.360;2023-03-03T07:21:45;38.00;;;16.47;;
20124;SDS011;10223;50.862;4.360;2023-03-03T07:26:56;36.23;;;17.00;;
20124;SDS011;10223;50.862;4.360;2023-03-03T07:29:27;35.63;;;16.90;;
20124;SDS011;10223;50.862;4.360;2023-03-03T07:31:55;34.60;;;16.60;;
20124;SDS011;10223;50.862;4.360;2023-03-03T07:34:23;34.47;;;17.17;;
20124;SDS011;10223;50.862;4.360;2023-03-03T07:36:56;34.50;;;16.70;;
20124;SDS011;10223;50.862;4.360;2023-03-03T07:39:27;33.43;;;15.37;;
20124;SDS011;10223;50.862;4.360;2023-03-03T07:41:59;40.33;;;16.80;;
20124;SDS011;10223;50.862;4.360;2023-03-03T07:44:41;35.90;;;16.40;;
20124;SDS011;10223;50.862;4.360;2023-03-03T07:47:11;41.40;;;17.90;;
20124;SDS011;10223;50.862;4.360;2023-03-03T07:49:44;33.63;;;15.20;;
20124;SDS011;10223;50.862;4.360;2023-03-03T07:52:22;37.50;;;17.40;;
20124;SDS011;10223;50.862;4.360;2023-03-03T07:54:51;39.80;;;17.73;;
20124;SDS011;10223;50.862;4.360;2023-03-03T07:57:20;32.43;;;15.70;;
20124;SDS011;10223;50.862;4.360;2023-03-03T07:59:51;35.53;;;16.30;;
20124;SDS011;10223;50.862;4.360;2023-03-03T08:02:29;41.40;;;16.70;;
20124;SDS011;10223;50.862;4.360;2023-03-03T08:05:14;35.67;;;15.83;;
20124;SDS011;10223;50.862;4.360;2023-03-03T08:07:52;37.83;;;17.73;;
20124;SDS011;10223;50.862;4.360;2023-03-03T08:10:27;40.57;;;17.10;;
20124;SDS011;10223;50.862;4.360;2023-03-03T08:13:00;38.33;;;16.40;;
20124;SDS011;10223;50.862;4.360;2023-03-03T08:15:36;36.07;;;17.43;;
20124;SDS011;10223;50.862;4.360;2023-03-03T08:18:07;37.53;;;16.77;;
20124;SDS011;10223;50.862;4.360;2023-03-03T08:20:47;33.63;;;16.33;;
20124;SDS011;10223;50.862;4.360;2023-03-03T08:23:16;33.33;;;15.60;;
20124;SDS011;10223;50.862;4.360;2023-03-03T08:25:44;33.57;;;15.43;;
20124;SDS011;10223;50.862;4.360;2023-03-03T08:28:11;35.23;;;16.37;;
20124;SDS011;10223;50.862;4.360;2023-03-03T08:30:40;33.93;;;14.83;;
20124;SDS011;10223;50.862;4.360;2023-03-03T08:33:08;31.80;;;15.33;;
20124;SDS011;10223;50.862;4.360;2023-03-03T08:35:35;35.33;;;16.17;;
20124;SDS011;10223;50.862;4.360;2023-03-03T08:38:02;33.43;;;15.67;;
20124;SDS011;10223;50.862;4.360;2023-03-03T08:40:30;33.80;;;15.63;;
20124;SDS011;10223;50.862;4.360;2023-03-03T08:42:57;34.80;;;15.27;;
20124;SDS011;10223;50.862;4.360;2023-03-03T08:45:25;31.77;;;14.97;;
20124;SDS011;10223;50.862;4.360;2023-03-03T08:47:54;30.47;;;14.17;;
20124;SDS011;10223;50.862;4.360;2023-03-03T08:50:21;32.13;;;15.20;;
20124;SDS011;10223;50.862;4.360;2023-03-03T08:52:48;31.33;;;14.47;;
20124;SDS011;10223;50.862;4.360;2023-03-03T08:55:15;35.07;;;14.60;;
20124;SDS011;10223;50.862;4.360;2023-03-03T08:57:42;31.07;;;15.43;;
20124;SDS011;10223;50.862;4.360;2023-03-03T09:00:11;28.20;;;14.03;;
20124;SDS011;10223;50.862;4.360;2023-03-03T09:02:40;31.53;;;13.70;;
20124;SDS011;10223;50.862;4.360;2023-03-03T09:05:09;28.47;;;14.80;;
20124;SDS011;10223;50.862;4.360;2023-03-03T09:07:37;31.63;;;14.40;;
20124;SDS011;10223;50.862;4.360;2023-03-03T09:10:05;26.53;;;13.10;;
20124;SDS011;10223;50.862;4.360;2023-03-03T09:12:33;29.10;;;14.00;;
20124;SDS011;10223;50.862;4.360;2023-03-03T09:15:06;27.17;;;13.50;;
20124;SDS011;10223;50.862;4.360;2023-03-03T09:17:43;26.93;;;13.53;;
20124;SDS011;10223;50.862;4.360;2023-03-03T09:20:20;29.27;;;13.47;;
20124;SDS011;10223;50.862;4.360;2023-03-03T09:22:50;28.80;;;13.47;;
20124;SDS011;10223;50.862;4.360;2023-03-03T09:25:19;30.77;;;13.50;;
20124;SDS011;10223;50.862;4.360;2023-03-03T09:27:51;34.27;;;13.93;;
20124;SDS011;10223;50.862;4.360;2023-03-03T09:30:26;32.80;;;13.87;;
20124;SDS011;10223;50.862;4.360;2023-03-03T09:33:01;29.63;;;13.67;;
20124;SDS011;10223;50.862;4.360;2023-03-03T09:35:50;27.07;;;12.43;;
20124;SDS011;10223;50.862;4.360;2023-03-03T09:38:25;30.37;;;13.83;;
20124;SDS011;10223;50.862;4.360;2023-03-03T09:40:56;28.37;;;12.70;;
20124;SDS011;10223;50.862;4.360;2023-03-03T09:43:50;30.00;;;13.13;;
20124;SDS011;10223;50.862;4.360;2023-03-03T09:46:26;29.33;;;13.07;;
20124;SDS011;10223;50.862;4.360;2023-03-03T09:49:01;31.77;;;13.27;;
20124;SDS011;10223;50.862;4.360;2023-03-03T09:54:49;30.70;;;13.13;;
20124;SDS011;10223;50.862;4.360;2023-03-03T09:57:28;28.60;;;13.47;;
20124;SDS011;10223;50.862;4.360;2023-03-03T10:00:10;31.50;;;13.00;;
20124;SDS011;10223;50.862;4.360;2023-03-03T10:02:50;31.53;;;13.57;;
20124;SDS011;10223;50.862;4.360;2023-03-03T10:05:40;29.40;;;14.27;;
20124;SDS011;10223;50.862;4.360;2023-03-03T10:08:23;28.37;;;13.53;;
20124;SDS011;10223;50.862;4.360;2023-03-03T10:11:02;38.83;;;13.90;;
20124;SDS011;10223;50.862;4.360;2023-03-03T10:13:42;28.17;;;12.30;;
20124;SDS011;10223;50.862;4.360;2023-03-03T10:16:20;30.60;;;13.23;;
20124;SDS011;10223;50.862;4.360;2023-03-03T10:19:00;28.17;;;12.97;;
20124;SDS011;10223;50.862;4.360;2023-03-03T10:21:29;89.40;;;39.63;;
20124;SDS011;10223;50.862;4.360;2023-03-03T10:24:04;37.30;;;15.80;;
20124;SDS011;10223;50.862;4.360;2023-03-03T10:27:04;32.73;;;14.10;;
20124;SDS011;10223;50.862;4.360;2023-03-03T10:29:43;31.47;;;13.23;;
20124;SDS011;10223;50.862;4.360;2023-03-03T10:32:34;30.57;;;14.17;;
20124;SDS011;10223;50.862;4.360;2023-03-03T10:38:11;28.50;;;12.70;;
20124;SDS011;10223;50.862;4.360;2023-03-03T10:41:03;30.77;;;13.90;;
20124;SDS011;10223;50.862;4.360;2023-03-03T10:43:49;31.13;;;12.80;;
20124;SDS011;10223;50.862;4.360;2023-03-03T10:46:41;36.23;;;13.00;;
20124;SDS011;10223;50.862;4.360;2023-03-03T10:49:29;28.90;;;12.93;;
20124;SDS011;10223;50.862;4.360;2023-03-03T10:52:18;28.93;;;12.73;;
20124;SDS011;10223;50.862;4.360;2023-03-03T10:57:53;27.87;;;13.63;;
20124;SDS011;10223;50.862;4.360;2023-03-03T11:00:43;28.67;;;12.80;;
20124;SDS011;10223;50.862;4.360;2023-03-03T11:03:25;28.83;;;13.50;;
20124;SDS011;10223;50.862;4.360;2023-03-03T11:06:15;28.97;;;13.20;;
20124;SDS011;10223;50.862;4.360;2023-03-03T11:08:48;36.10;;;13.43;;
20124;SDS011;10223;50.862;4.360;2023-03-03T11:11:24;30.77;;;13.40;;
20124;SDS011;10223;50.862;4.360;2023-03-03T11:14:02;26.67;;;12.57;;
20124;SDS011;10223;50.862;4.360;2023-03-03T11:16:43;29.33;;;13.40;;
20124;SDS011;10223;50.862;4.360;2023-03-03T11:19:26;31.97;;;13.13;;
20124;SDS011;10223;50.862;4.360;2023-03-03T11:22:14;25.97;;;12.53;;
20124;SDS011;10223;50.862;4.360;2023-03-03T11:24:53;31.70;;;14.10;;
20124;SDS011;10223;50.862;4.360;2023-03-03T11:27:31;23.90;;;11.40;;
20124;SDS011;10223;50.862;4.360;2023-03-03T11:30:22;30.77;;;13.37;;
20124;SDS011;10223;50.862;4.360;2023-03-03T11:33:06;28.33;;;12.53;;
20124;SDS011;10223;50.862;4.360;2023-03-03T11:35:40;30.27;;;13.73;;
20124;SDS011;10223;50.862;4.360;2023-03-03T11:38:23;27.17;;;12.77;;
20124;SDS011;10223;50.862;4.360;2023-03-03T11:41:00;26.57;;;12.77;;
20124;SDS011;10223;50.862;4.360;2023-03-03T11:43:30;25.00;;;12.17;;
20124;SDS011;10223;50.862;4.360;2023-03-03T11:46:04;26.07;;;12.70;;
20124;SDS011;10223;50.862;4.360;2023-03-03T11:48:37;29.90;;;12.53;;
20124;SDS011;10223;50.862;4.360;2023-03-03T11:51:10;33.67;;;14.07;;
20124;SDS011;10223;50.862;4.360;2023-03-03T11:53:46;132.67;;;20.13;;
20124;SDS011;10223;50.862;4.360;2023-03-03T11:56:23;41.90;;;14.20;;
20124;SDS011;10223;50.862;4.360;2023-03-03T11:59:01;73.03;;;16.00;;
20124;SDS011;10223;50.862;4.360;2023-03-03T12:01:38;30.37;;;13.27;;
20124;SDS011;10223;50.862;4.360;2023-03-03T12:04:13;32.73;;;13.30;;
20124;SDS011;10223;50.862;4.360;2023-03-03T12:06:50;27.73;;;13.00;;
20124;SDS011;10223;50.862;4.360;2023-03-03T12:09:30;42.77;;;15.50;;
20124;SDS011;10223;50.862;4.360;2023-03-03T12:12:05;27.67;;;13.03;;
20124;SDS011;10223;50.862;4.360;2023-03-03T12:14:53;24.83;;;11.90;;
20124;SDS011;10223;50.862;4.360;2023-03-03T12:17:44;25.20;;;13.10;;
20124;SDS011;10223;50.862;4.360;2023-03-03T12:20:26;23.23;;;11.50;;
20124;SDS011;10223;50.862;4.360;2023-03-03T12:23:05;27.60;;;12.63;;
20124;SDS011;10223;50.862;4.360;2023-03-03T12:25:39;27.33;;;12.10;;
20124;SDS011;10223;50.862;4.360;2023-03-03T12:28:09;25.07;;;11.70;;
20124;SDS011;10223;50.862;4.360;2023-03-03T12:33:53;24.77;;;10.47;;
20124;SDS011;10223;50.862;4.360;2023-03-03T12:39:18;22.23;;;10.80;;
20124;SDS011;10223;50.862;4.360;2023-03-03T12:41:56;24.67;;;11.77;;
20124;SDS011;10223;50.862;4.360;2023-03-03T12:44:32;21.50;;;10.73;;
20124;SDS011;10223;50.862;4.360;2023-03-03T12:47:05;22.27;;;11.53;;
20124;SDS011;10223;50.862;4.360;2023-03-03T12:49:44;24.93;;;12.47;;
20124;SDS011;10223;50.862;4.360;2023-03-03T12:52:24;29.50;;;15.27;;
20124;SDS011;10223;50.862;4.360;2023-03-03T12:55:04;25.87;;;13.23;;
20124;SDS011;10223;50.862;4.360;2023-03-03T12:57:39;21.40;;;10.93;;
20124;SDS011;10223;50.862;4.360;2023-03-03T13:00:18;21.33;;;11.13;;
20124;SDS011;10223;50.862;4.360;2023-03-03T13:02:59;23.67;;;11.77;;
20124;SDS011;10223;50.862;4.360;2023-03-03T13:05:34;24.23;;;10.60;;
20124;SDS011;10223;50.862;4.360;2023-03-03T13:08:18;19.20;;;10.23;;
20124;SDS011;10223;50.862;4.360;2023-03-03T13:10:57;22.47;;;10.57;;
20124;SDS011;10223;50.862;4.360;2023-03-03T13:13:32;23.33;;;11.10;;
20124;SDS011;10223;50.862;4.360;2023-03-03T13:16:08;22.30;;;10.97;;
20124;SDS011;10223;50.862;4.360;2023-03-03T13:18:43;19.27;;;11.13;;
20124;SDS011;10223;50.862;4.360;2023-03-03T13:21:18;20.27;;;11.17;;
20124;SDS011;10223;50.862;4.360;2023-03-03T13:23:52;22.57;;;11.57;;
20124;SDS011;10223;50.862;4.360;2023-03-03T13:26:24;18.83;;;10.30;;
20124;SDS011;10223;50.862;4.360;2023-03-03T13:28:59;23.23;;;11.40;;
20124;SDS011;10223;50.862;4.360;2023-03-03T13:31:34;20.80;;;10.23;;
20124;SDS011;10223;50.862;4.360;2023-03-03T13:34:04;20.50;;;10.43;;
20124;SDS011;10223;50.862;4.360;2023-03-03T13:36:40;19.70;;;10.40;;
20124;SDS011;10223;50.862;4.360;2023-03-03T13:39:18;20.67;;;10.30;;
20124;SDS011;10223;50.862;4.360;2023-03-03T13:41:48;18.53;;;10.83;;
20124;SDS011;10223;50.862;4.360;2023-03-03T13:44:21;20.57;;;11.17;;
20124;SDS011;10223;50.862;4.360;2023-03-03T13:46:57;25.27;;;11.13;;
20124;SDS011;10223;50.862;4.360;2023-03-03T13:49:38;23.63;;;11.83;;
20124;SDS011;10223;50.862;4.360;2023-03-03T13:52:12;22.70;;;12.17;;
20124;SDS011;10223;50.862;4.360;2023-03-03T13:54:59;19.37;;;10.47;;
20124;SDS011;10223;50.862;4.360;2023-03-03T13:57:43;21.27;;;10.00;;
20124;SDS011;10223;50.862;4.360;2023-03-03T14:00:18;19.57;;;9.57;;
20124;SDS011;10223;50.862;4.360;2023-03-03T14:02:58;20.30;;;10.23;;
20124;SDS011;10223;50.862;4.360;2023-03-03T14:05:35;18.90;;;9.70;;
20124;SDS011;10223;50.862;4.360;2023-03-03T14:08:06;21.93;;;10.00;;
20124;SDS011;10223;50.862;4.360;2023-03-03T14:10:43;22.13;;;9.13;;
20124;SDS011;10223;50.862;4.360;2023-03-03T14:13:16;17.20;;;9.70;;
20124;SDS011;10223;50.862;4.360;2023-03-03T14:15:51;16.03;;;9.17;;
20124;SDS011;10223;50.862;4.360;2023-03-03T14:18:23;20.73;;;10.10;;
20124;SDS011;10223;50.862;4.360;2023-03-03T14:20:57;18.80;;;10.23;;
20124;SDS011;10223;50.862;4.360;2023-03-03T14:23:30;16.65;;;8.85;;
20124;SDS011;10223;50.862;4.360;2023-03-03T14:26:07;18.37;;;9.33;;
20124;SDS011;10223;50.862;4.360;2023-03-03T14:28:37;17.27;;;8.88;;
20124;SDS011;10223;50.862;4.360;2023-03-03T14:31:14;15.15;;;8.68;;
20124;SDS011;10223;50.862;4.360;2023-03-03T14:33:44;16.13;;;9.32;;
20124;SDS011;10223;50.862;4.360;2023-03-03T14:36:24;15.47;;;9.53;;
20124;SDS011;10223;50.862;4.360;2023-03-03T14:38:53;25.40;;;9.40;;
20124;SDS011;10223;50.862;4.360;2023-03-03T14:41:33;21.07;;;10.37;;
20124;SDS011;10223;50.862;4.360;2023-03-03T14:44:20;21.33;;;9.83;;
20124;SDS011;10223;50.862;4.360;2023-03-03T14:47:01;22.43;;;9.93;;
20124;SDS011;10223;50.862;4.360;2023-03-03T14:49:43;14.53;;;7.80;;
20124;SDS011;10223;50.862;4.360;2023-03-03T14:52:17;20.07;;;8.83;;
20124;SDS011;10223;50.862;4.360;2023-03-03T14:54:47;16.63;;;8.37;;
20124;SDS011;10223;50.862;4.360;2023-03-03T14:57:17;17.23;;;8.53;;
20124;SDS011;10223;50.862;4.360;2023-03-03T14:59:55;21.07;;;9.33;;
20124;SDS011;10223;50.862;4.360;2023-03-03T15:02:30;18.07;;;9.23;;
20124;SDS011;10223;50.862;4.360;2023-03-03T15:05:11;17.67;;;8.77;;
20124;SDS011;10223;50.862;4.360;2023-03-03T15:07:50;18.90;;;9.23;;
20124;SDS011;10223;50.862;4.360;2023-03-03T15:10:30;19.87;;;8.20;;